Time;durP1;ratioP1;P1;durP2;ratioP2;P2;SDS_P1;SDS_P2;PMS_P1;PMS_P2;Temp;Humidity;BMP_temperature;BMP_pressure;BME280_temperature;BME280_humidity;BME280_pressure;Samples;Min_cycle;Max_cycle;Signal;HPM_P1;HPM_P2
2022/08/12 00:44:13;;;;;;;11.10;4.28;;;23.00;45.40;;;;;;5113331;28;20055;-73
2022/08/12 00:46:54;;;;;;;7.13;3.15;;;22.90;45.60;;;;;;5113148;28;20016;-73
2022/08/12 00:49:22;;;;;;;6.82;3.40;;;22.80;45.50;;;;;;5113173;28;20080;-73
2022/08/12 00:52:06;;;;;;;6.45;2.85;;;22.80;46.30;;;;;;5113175;28;20089;-73
2022/08/12 00:54:36;;;;;;;6.60;3.03;;;22.80;46.50;;;;;;5113135;28;20054;-73
2022/08/12 00:57:11;;;;;;;3.65;2.60;;;22.90;46.60;;;;;;5114639;28;20049;-73
2022/08/12 00:59:46;;;;;;;4.32;3.00;;;22.80;46.90;;;;;;5117114;28;20028;-73
2022/08/12 01:02:21;;;;;;;4.90;2.67;;;22.90;47.20;;;;;;5116883;28;20031;-73
2022/08/12 01:13:07;;;;;;;4.70;2.88;;;22.50;47.50;;;;;;5116795;28;20039;-73
2022/08/12 01:15:33;;;;;;;5.40;2.72;;;22.50;48.00;;;;;;5116613;28;20088;-73
2022/08/12 01:17:59;;;;;;;4.72;3.00;;;22.40;48.30;;;;;;5115557;28;20028;-73
2022/08/12 01:20:37;;;;;;;4.05;2.72;;;22.40;48.90;;;;;;5115620;28;20028;-73
2022/08/12 01:23:31;;;;;;;4.60;2.70;;;22.30;48.90;;;;;;5116425;28;20024;-73
2022/08/12 01:26:00;;;;;;;4.20;2.70;;;22.30;48.80;;;;;;5116422;28;20028;-73
2022/08/12 01:28:27;;;;;;;4.03;2.92;;;22.30;48.80;;;;;;5116264;28;20058;-73
2022/08/12 01:30:53;;;;;;;7.30;3.08;;;22.30;48.50;;;;;;5116319;28;20053;-73
2022/08/12 01:33:20;;;;;;;5.88;2.92;;;22.30;48.80;;;;;;5116268;28;20039;-73
2022/08/12 01:35:59;;;;;;;4.38;2.95;;;22.40;49.80;;;;;;5116219;28;20058;-73
2022/08/12 01:38:27;;;;;;;4.35;3.05;;;22.40;49.30;;;;;;5116195;28;20028;-73
2022/08/12 01:40:57;;;;;;;3.08;2.78;;;22.40;49.70;;;;;;5116133;28;20027;-73
2022/08/12 01:43:24;;;;;;;7.00;3.15;;;22.40;48.90;;;;;;5115985;28;20087;-73
2022/08/12 01:46:12;;;;;;;7.97;3.00;;;22.30;48.70;;;;;;5116031;28;20020;-73
2022/08/12 01:48:52;;;;;;;3.88;2.53;;;22.30;48.50;;;;;;5116060;28;20031;-73
2022/08/12 01:51:42;;;;;;;3.35;2.80;;;22.20;49.10;;;;;;5116138;28;20031;-74
2022/08/12 01:54:12;;;;;;;5.07;3.15;;;22.20;50.50;;;;;;5115914;28;20032;-73
2022/08/12 01:56:53;;;;;;;4.22;2.88;;;22.30;49.80;;;;;;5115886;28;20084;-73
2022/08/12 01:59:49;;;;;;;5.35;3.25;;;22.30;49.10;;;;;;5115854;28;20087;-73
2022/08/12 02:02:26;;;;;;;3.78;2.90;;;22.40;49.90;;;;;;5115753;28;20050;-73
2022/08/12 02:11:16;;;;;;;3.72;3.05;;;22.10;51.00;;;;;;5115638;28;20034;-73
2022/08/12 02:14:12;;;;;;;4.18;2.90;;;22.20;49.80;;;;;;5115596;28;20217;-73
2022/08/12 02:17:39;;;;;;;5.63;3.42;;;22.10;49.90;;;;;;5115604;28;20047;-73
2022/08/12 02:20:20;;;;;;;4.80;2.80;;;22.10;51.20;;;;;;5103334;28;20036;-73
2022/08/12 02:22:46;;;;;;;5.18;3.10;;;21.90;51.60;;;;;;5115433;28;20024;-73
2022/08/12 02:25:17;;;;;;;4.63;3.30;;;21.90;52.00;;;;;;5115276;28;20024;-73
2022/08/12 02:27:54;;;;;;;4.00;3.13;;;21.80;52.10;;;;;;5115199;28;20048;-73
2022/08/12 02:30:30;;;;;;;4.25;2.90;;;21.70;52.30;;;;;;5115226;28;20020;-74
2022/08/12 02:32:58;;;;;;;4.45;3.38;;;21.70;52.80;;;;;;5115211;28;20032;-73
2022/08/12 02:35:29;;;;;;;4.50;3.45;;;21.70;52.60;;;;;;5115091;28;20038;-73
2022/08/12 02:37:57;;;;;;;4.70;3.20;;;21.60;52.80;;;;;;5115053;28;20047;-74
2022/08/12 02:40:25;;;;;;;5.57;3.03;;;21.70;52.90;;;;;;5114968;28;20027;-73
2022/08/12 02:43:22;;;;;;;6.50;3.08;;;21.50;53.70;;;;;;5114861;28;20028;-73
2022/08/12 02:46:07;;;;;;;5.15;3.60;;;21.50;53.80;;;;;;5104534;28;20071;-73
2022/08/12 02:48:50;;;;;;;3.92;3.35;;;21.40;54.50;;;;;;5114887;28;20032;-73
2022/08/12 02:51:19;;;;;;;;;;;21.30;54.20;;;;;;5115219;28;20081;-73
2022/08/12 02:53:45;;;;;;;4.90;3.17;;;21.20;54.90;;;;;;5114749;28;19926;-73
2022/08/12 02:56:11;;;;;;;3.75;3.22;;;21.00;54.70;;;;;;5114665;28;20028;-73
2022/08/12 02:58:39;;;;;;;5.57;3.55;;;21.00;54.40;;;;;;5114608;28;20031;-73
2022/08/12 03:01:09;;;;;;;7.00;3.28;;;21.20;55.30;;;;;;5114591;28;20026;-74
2022/08/12 03:03:36;;;;;;;3.97;3.13;;;21.30;54.70;;;;;;5114510;28;20024;-74
2022/08/12 03:06:11;;;;;;;4.80;3.28;;;21.30;54.20;;;;;;5114333;28;20059;-74
2022/08/12 03:08:42;;;;;;;4.85;3.15;;;21.20;54.60;;;;;;5114639;28;20031;-73
2022/08/12 03:11:12;;;;;;;4.70;3.33;;;21.20;53.70;;;;;;5114450;28;20024;-73
2022/08/12 03:13:44;;;;;;;3.70;3.20;;;21.20;53.60;;;;;;5114524;28;20079;-73
2022/08/12 03:16:10;;;;;;;4.65;3.33;;;21.30;54.30;;;;;;5114345;28;20031;-74
2022/08/12 03:18:37;;;;;;;4.32;3.45;;;21.10;54.90;;;;;;5113867;28;20028;-73
2022/08/12 03:21:03;;;;;;;3.70;3.17;;;21.10;55.20;;;;;;5113809;28;20495;-73
2022/08/12 03:23:29;;;;;;;6.38;3.50;;;21.00;55.20;;;;;;5114080;28;20032;-73
2022/08/12 03:25:55;;;;;;;5.15;3.45;;;21.00;55.80;;;;;;5114117;28;20016;-73
2022/08/12 03:31:09;;;;;;;5.50;3.88;;;20.90;56.80;;;;;;5114118;28;20042;-74
2022/08/12 03:33:39;;;;;;;5.82;3.65;;;20.90;56.40;;;;;;5113982;28;20024;-73
2022/08/12 03:36:07;;;;;;;6.10;3.45;;;20.80;56.80;;;;;;5113990;28;20024;-73
2022/08/12 03:38:36;;;;;;;8.13;3.80;;;20.90;57.40;;;;;;5113864;28;20058;-73
2022/08/12 03:41:36;;;;;;;8.07;3.67;;;20.90;57.00;;;;;;5113872;28;20024;-73
2022/08/12 04:01:09;;;;;;;4.65;3.83;;;20.60;58.00;;;;;;5113876;28;20111;-73
2022/08/12 04:03:51;;;;;;;5.85;4.07;;;20.60;58.20;;;;;;5113556;28;20032;-73
2022/08/12 04:06:27;;;;;;;5.05;3.78;;;20.50;58.50;;;;;;5113491;28;20043;-73
2022/08/12 04:08:57;;;;;;;6.15;4.25;;;20.50;58.30;;;;;;5113531;28;20028;-73
2022/08/12 04:14:13;;;;;;;7.45;4.20;;;20.50;58.90;;;;;;5113742;28;20063;-73
2022/08/12 04:16:39;;;;;;;5.20;3.88;;;20.50;59.00;;;;;;5113472;28;20035;-73
2022/08/12 04:19:06;;;;;;;6.55;4.35;;;20.40;59.40;;;;;;5113434;28;20059;-74
2022/08/12 04:21:33;;;;;;;5.55;4.05;;;20.40;59.60;;;;;;5113426;28;20035;-73
2022/08/12 04:23:59;;;;;;;6.40;4.00;;;20.40;59.10;;;;;;5113349;28;20020;-73
2022/08/12 04:26:28;;;;;;;6.00;4.22;;;20.40;59.30;;;;;;5113366;28;20086;-73
2022/08/12 04:28:55;;;;;;;5.60;3.88;;;20.30;59.40;;;;;;5113442;28;20032;-73
2022/08/12 04:31:38;;;;;;;7.60;4.20;;;20.30;58.80;;;;;;5115482;28;20028;-73
2022/08/12 04:34:06;;;;;;;5.00;3.67;;;20.30;59.20;;;;;;5117483;28;20074;-73
2022/08/12 04:36:33;;;;;;;6.93;4.50;;;20.20;58.80;;;;;;5117378;28;20020;-73
2022/08/12 04:39:00;;;;;;;6.63;4.38;;;20.20;58.80;;;;;;5117360;28;20026;-73
2022/08/12 04:41:27;;;;;;;6.45;4.05;;;20.40;58.80;;;;;;5117303;28;20028;-73
2022/08/12 04:43:53;;;;;;;6.80;3.97;;;20.40;58.90;;;;;;5117178;28;20035;-73
2022/08/12 04:46:19;;;;;;;7.07;4.47;;;20.30;59.40;;;;;;5117201;28;20020;-73
2022/08/12 04:48:45;;;;;;;8.90;4.32;;;20.20;59.40;;;;;;5117156;28;20024;-74
2022/08/12 04:51:13;;;;;;;7.35;4.38;;;20.20;59.30;;;;;;5117107;28;20024;-73
2022/08/12 04:53:42;;;;;;;7.03;4.63;;;20.20;59.50;;;;;;5117062;28;20024;-73
2022/08/12 04:56:09;;;;;;;7.60;4.82;;;20.30;59.50;;;;;;5117016;28;20032;-74
2022/08/12 04:58:36;;;;;;;6.93;4.60;;;20.20;59.20;;;;;;5116986;28;20032;-73
2022/08/12 05:01:02;;;;;;;10.55;4.65;;;20.20;59.30;;;;;;5116958;28;20028;-73
2022/08/12 05:03:27;;;;;;;7.30;4.57;;;20.20;59.30;;;;;;5116801;28;20039;-74
2022/08/12 05:05:56;;;;;;;7.60;4.63;;;20.30;59.50;;;;;;5116880;28;20052;-73
2022/08/12 05:08:22;;;;;;;9.18;4.57;;;20.40;59.90;;;;;;5116778;28;20046;-73
2022/08/12 05:10:49;;;;;;;7.93;4.95;;;20.40;60.20;;;;;;5116742;28;20020;-73
2022/08/12 05:13:36;;;;;;;8.65;5.30;;;20.40;60.30;;;;;;5116650;28;20024;-73
2022/08/12 05:16:03;;;;;;;7.50;4.80;;;20.40;60.70;;;;;;5116737;28;20053;-73
2022/08/12 05:18:28;;;;;;;9.05;5.40;;;20.30;60.70;;;;;;5116608;28;20028;-73
2022/08/12 05:20:54;;;;;;;6.82;4.70;;;20.30;61.00;;;;;;5116555;28;20097;-73
2022/08/12 05:23:21;;;;;;;8.23;4.82;;;20.40;61.40;;;;;;5116397;28;20032;-73
2022/08/12 05:25:50;;;;;;;7.45;4.60;;;20.40;61.50;;;;;;5116479;28;20035;-73
2022/08/12 05:28:17;;;;;;;9.88;5.70;;;20.50;61.20;;;;;;5116314;28;20020;-73
2022/08/12 05:30:44;;;;;;;8.20;5.10;;;20.50;61.10;;;;;;5116327;28;20020;-73
2022/08/12 05:33:11;;;;;;;8.35;5.30;;;20.70;60.60;;;;;;5116304;28;20025;-73
2022/08/12 05:35:39;;;;;;;9.07;5.60;;;20.80;60.70;;;;;;5116234;28;20087;-73
2022/08/12 05:40:50;;;;;;;12.38;5.90;;;20.90;60.60;;;;;;5116279;28;20043;-72
2022/08/12 05:43:16;;;;;;;10.43;5.90;;;21.00;61.60;;;;;;5115268;28;20032;-72
2022/08/12 05:45:42;;;;;;;11.00;5.90;;;20.90;61.40;;;;;;5116224;28;20054;-72
2022/08/12 05:48:08;;;;;;;12.32;6.10;;;20.90;60.60;;;;;;5116033;28;20083;-73
2022/08/12 05:50:34;;;;;;;9.82;5.95;;;20.90;61.30;;;;;;5115971;28;20383;-72
2022/08/12 05:53:00;;;;;;;8.30;6.45;;;21.00;61.40;;;;;;5115940;28;20028;-72
2022/08/12 05:55:26;;;;;;;8.40;5.88;;;21.00;61.20;;;;;;5115864;28;20030;-72
2022/08/12 05:57:54;;;;;;;8.70;6.55;;;21.10;61.10;;;;;;5115861;28;20036;-72
2022/08/12 06:00:28;;;;;;;12.98;6.45;;;21.20;61.20;;;;;;5115791;28;20028;-73
2022/08/12 06:03:00;;;;;;;9.27;5.97;;;21.20;61.20;;;;;;5115671;28;20031;-73
2022/08/12 06:05:33;;;;;;;13.68;6.32;;;21.30;61.40;;;;;;5115572;28;20052;-73
2022/08/12 06:07:59;;;;;;;10.25;6.47;;;21.20;61.60;;;;;;5115694;28;20027;-72
2022/08/12 06:10:25;;;;;;;9.30;5.95;;;21.20;61.90;;;;;;5114508;28;20028;-73
2022/08/12 06:12:51;;;;;;;11.13;6.85;;;21.30;62.00;;;;;;5115743;28;20030;-73
2022/08/12 06:15:21;;;;;;;11.75;6.60;;;21.30;62.70;;;;;;5115637;28;20020;-72
2022/08/12 06:17:47;;;;;;;13.57;6.47;;;21.30;61.60;;;;;;5115528;28;20017;-73
2022/08/12 06:20:14;;;;;;;8.30;6.25;;;21.30;61.80;;;;;;5115383;28;20076;-73
2022/08/12 06:22:45;;;;;;;10.82;6.55;;;21.40;61.70;;;;;;5115296;28;20031;-72
2022/08/12 06:25:17;;;;;;;10.38;6.15;;;21.40;60.60;;;;;;5115367;28;20030;-72
2022/08/12 06:27:47;;;;;;;9.25;6.18;;;21.50;60.00;;;;;;5115288;28;20024;-72
2022/08/12 06:30:19;;;;;;;8.52;6.20;;;21.50;59.50;;;;;;5115242;28;20028;-72
2022/08/12 06:32:46;;;;;;;9.77;6.57;;;21.50;58.90;;;;;;5115394;28;20035;-72
2022/08/12 06:35:16;;;;;;;10.95;6.35;;;21.50;59.20;;;;;;5115114;28;20024;-72
2022/08/12 06:37:45;;;;;;;10.85;6.43;;;21.60;58.90;;;;;;5115084;28;20483;-73
2022/08/12 06:40:12;;;;;;;11.07;6.80;;;21.70;58.30;;;;;;5114981;28;20046;-72
2022/08/12 06:42:47;;;;;;;10.13;6.50;;;21.70;58.00;;;;;;5114876;28;20046;-72
2022/08/12 06:45:20;;;;;;;10.30;6.50;;;21.70;58.30;;;;;;5115100;28;20024;-72
2022/08/12 06:47:47;;;;;;;12.65;6.65;;;21.80;59.80;;;;;;5114883;28;20025;-73
2022/08/12 06:50:17;;;;;;;14.90;6.75;;;21.90;60.40;;;;;;5114803;28;20020;-72
2022/08/12 06:52:43;;;;;;;14.90;7.60;;;22.00;60.60;;;;;;5114815;28;20024;-72
2022/08/12 06:55:12;;;;;;;12.13;6.45;;;22.00;61.20;;;;;;5114632;28;20083;-72
2022/08/12 06:57:54;;;;;;;13.80;6.43;;;22.10;60.90;;;;;;5114669;28;20022;-72
2022/08/12 07:00:21;;;;;;;10.50;6.15;;;22.10;61.40;;;;;;5114674;28;20032;-72
2022/08/12 07:02:47;;;;;;;10.32;6.85;;;22.20;61.40;;;;;;5114502;28;20020;-72
2022/08/12 07:05:13;;;;;;;10.20;6.40;;;22.30;60.60;;;;;;5114368;28;20070;-72
2022/08/12 07:07:39;;;;;;;13.52;6.40;;;22.30;60.60;;;;;;5114506;28;20050;-72
2022/08/12 07:10:05;;;;;;;14.82;6.78;;;22.40;60.90;;;;;;5114408;28;20036;-73
2022/08/12 07:12:30;;;;;;;11.05;6.65;;;22.40;60.90;;;;;;5114411;28;20031;-73
2022/08/12 07:14:57;;;;;;;11.57;6.15;;;22.50;59.50;;;;;;5114468;28;20119;-72
2022/08/12 07:17:25;;;;;;;13.02;6.88;;;22.50;59.10;;;;;;5114295;28;20083;-73
2022/08/12 07:19:52;;;;;;;10.95;7.00;;;22.60;58.00;;;;;;5114321;28;20099;-73
2022/08/12 07:22:18;;;;;;;13.75;6.60;;;22.70;58.80;;;;;;5114386;28;20024;-73
2022/08/12 07:25:29;;;;;;;10.30;5.85;;;22.80;59.50;;;;;;5114103;28;20031;-73
2022/08/12 07:27:29;;;;;;;11.07;6.60;;;22.90;58.60;;;;;;5113191;28;20036;-73
2022/08/12 07:29:55;;;;;;;10.23;6.00;;;22.90;57.10;;;;;;5114053;28;20042;-73
2022/08/12 07:32:23;;;;;;;11.55;6.55;;;23.00;56.50;;;;;;5114041;28;20024;-73
2022/08/12 07:34:49;;;;;;;8.82;6.20;;;23.10;57.60;;;;;;5114009;28;20035;-73
2022/08/12 07:37:15;;;;;;;12.20;6.80;;;23.20;58.00;;;;;;5113942;28;20024;-73
2022/08/12 07:39:40;;;;;;;9.98;6.15;;;23.30;57.50;;;;;;5113926;28;20020;-73
2022/08/12 07:42:06;;;;;;;10.95;6.75;;;23.30;57.60;;;;;;5113875;28;20032;-73
2022/08/12 07:44:33;;;;;;;11.68;6.82;;;23.40;57.70;;;;;;5113766;28;20036;-73
2022/08/12 07:46:58;;;;;;;10.70;6.22;;;23.50;56.90;;;;;;5113858;28;20024;-73
2022/08/12 07:49:26;;;;;;;11.55;5.70;;;23.60;56.60;;;;;;5113765;28;20024;-73
2022/08/12 07:51:52;;;;;;;7.82;5.30;;;23.70;56.80;;;;;;5113899;28;20119;-73
2022/08/12 07:54:18;;;;;;;8.43;5.70;;;23.80;57.20;;;;;;5113866;28;20024;-73
2022/08/12 07:56:43;;;;;;;9.65;6.55;;;23.80;56.10;;;;;;5113794;28;20036;-73
2022/08/12 07:59:09;;;;;;;8.38;5.60;;;23.90;55.40;;;;;;5113674;28;20043;-73
2022/08/12 08:01:39;;;;;;;9.05;5.55;;;24.00;55.30;;;;;;5113618;28;20020;-73
2022/08/12 08:06:50;;;;;;;8.15;5.13;;;24.20;54.30;;;;;;5113303;28;20038;-73
2022/08/12 08:09:19;;;;;;;18.75;16.67;;;24.30;54.00;;;;;;5113502;28;20028;-73
2022/08/12 08:14:30;;;;;;;8.05;5.15;;;24.50;53.50;;;;;;5113643;28;20047;-74
2022/08/12 08:16:58;;;;;;;7.03;4.70;;;24.70;52.60;;;;;;5113488;28;20012;-74
2022/08/12 08:19:24;;;;;;;8.32;4.90;;;24.80;52.20;;;;;;5113443;28;20087;-73
2022/08/12 08:21:52;;;;;;;9.10;4.93;;;24.90;52.10;;;;;;5113468;28;20024;-73
2022/08/12 08:24:18;;;;;;;5.28;4.25;;;25.00;50.60;;;;;;5113358;28;20035;-73
2022/08/12 08:26:49;;;;;;;8.27;4.95;;;25.10;50.30;;;;;;5113311;28;20024;-73
2022/08/12 08:29:15;;;;;;;7.10;4.47;;;25.20;48.30;;;;;;5113354;28;20016;-73
2022/08/12 08:31:45;;;;;;;6.55;4.47;;;25.30;49.10;;;;;;5113363;28;20028;-73
2022/08/12 08:34:14;;;;;;;7.43;3.83;;;25.40;48.40;;;;;;5113337;28;20047;-73
2022/08/12 08:36:40;;;;;;;5.40;4.20;;;25.50;48.80;;;;;;5113242;28;20056;-73
2022/08/12 08:39:07;;;;;;;7.32;4.32;;;25.60;48.10;;;;;;5113277;28;20059;-73
2022/08/12 08:44:19;;;;;;;6.72;4.15;;;25.80;48.30;;;;;;5113267;28;20078;-73
2022/08/12 08:46:45;;;;;;;5.97;3.72;;;25.90;47.50;;;;;;5113191;28;20016;-73
2022/08/12 08:49:12;;;;;;;5.68;3.67;;;26.00;47.50;;;;;;5113229;28;20021;-73
2022/08/12 08:51:38;;;;;;;8.50;4.43;;;26.10;46.40;;;;;;5113199;28;20024;-73
2022/08/12 08:54:10;;;;;;;10.55;3.90;;;26.10;46.30;;;;;;5113132;28;20058;-73
2022/08/12 08:56:43;;;;;;;5.78;3.63;;;26.20;46.50;;;;;;5113207;28;20024;-73
2022/08/12 08:59:10;;;;;;;5.90;3.72;;;26.20;45.50;;;;;;5113138;28;20028;-73
2022/08/12 09:01:37;;;;;;;5.95;3.55;;;26.40;43.40;;;;;;5113088;28;20024;-73
2022/08/12 09:04:03;;;;;;;6.75;3.67;;;26.50;43.70;;;;;;5112757;28;20036;-73
2022/08/12 09:06:28;;;;;;;7.65;4.03;;;26.60;44.20;;;;;;5113021;28;20386;-73
2022/08/12 09:08:54;;;;;;;6.40;3.80;;;26.60;43.00;;;;;;5112901;28;20028;-73
2022/08/12 09:14:06;;;;;;;7.75;3.80;;;26.70;41.60;;;;;;5113013;28;20043;-72
2022/08/12 09:16:33;;;;;;;5.68;3.47;;;26.80;40.80;;;;;;5113014;28;20024;-73
2022/08/12 09:19:00;;;;;;;9.00;3.90;;;26.80;40.70;;;;;;5115886;28;20062;-73
2022/08/12 09:21:27;;;;;;;7.22;3.70;;;26.90;40.20;;;;;;5116590;28;20020;-72
2022/08/12 09:23:56;;;;;;;5.45;3.65;;;27.00;41.00;;;;;;5116424;28;20051;-72
2022/08/12 09:26:22;;;;;;;4.38;3.13;;;27.20;40.40;;;;;;5116384;28;20016;-73
2022/08/12 09:28:49;;;;;;;4.82;3.75;;;27.20;40.30;;;;;;5116347;28;20074;-72
2022/08/12 09:31:15;;;;;;;7.20;3.65;;;27.30;39.20;;;;;;5116409;28;20038;-72
2022/08/12 09:33:40;;;;;;;5.30;3.80;;;27.40;40.10;;;;;;5116349;28;20044;-72
2022/08/12 09:36:06;;;;;;;7.88;3.97;;;27.40;39.50;;;;;;5115339;28;20039;-72
2022/08/12 09:38:32;;;;;;;4.30;3.28;;;27.50;38.90;;;;;;5116391;28;20024;-72
2022/08/12 09:40:58;;;;;;;6.10;3.42;;;27.60;39.90;;;;;;5116357;28;20036;-72
2022/08/12 09:46:14;;;;;;;5.25;3.30;;;27.80;39.80;;;;;;5116209;28;20521;-72
2022/08/12 09:48:40;;;;;;;6.13;3.43;;;27.90;41.40;;;;;;5116244;28;20069;-72
2022/08/12 09:51:07;;;;;;;8.15;3.55;;;28.10;40.40;;;;;;5115978;28;20025;-72
2022/08/12 09:53:33;;;;;;;8.82;3.58;;;28.10;39.30;;;;;;5115905;28;20095;-72
2022/08/12 09:56:01;;;;;;;5.00;3.20;;;28.20;38.50;;;;;;5115917;28;20012;-72
2022/08/12 09:58:28;;;;;;;6.70;3.40;;;28.30;36.30;;;;;;5115854;28;20088;-72
2022/08/12 10:01:03;;;;;;;8.13;3.60;;;28.30;36.80;;;;;;5115780;28;20028;-72
2022/08/12 10:03:31;;;;;;;6.93;3.50;;;28.40;37.00;;;;;;5115802;28;20030;-72
2022/08/12 10:05:58;;;;;;;8.38;3.70;;;28.40;37.40;;;;;;5115587;28;20043;-72
2022/08/12 10:08:34;;;;;;;5.78;3.42;;;28.50;37.10;;;;;;5115667;28;20107;-72
2022/08/12 10:13:48;;;;;;;4.90;3.05;;;28.70;36.80;;;;;;5115815;28;20081;-72
2022/08/12 10:16:21;;;;;;;6.97;4.78;;;28.90;35.80;;;;;;5115509;28;20087;-72
2022/08/12 10:18:54;;;;;;;6.43;3.30;;;28.90;35.30;;;;;;5115489;28;20031;-72
2022/08/12 10:21:24;;;;;;;5.90;3.38;;;28.90;34.20;;;;;;5115603;28;20109;-71
2022/08/12 10:23:50;;;;;;;3.72;3.33;;;29.00;33.20;;;;;;5115298;28;20027;-72
2022/08/12 10:31:50;;;;;;;6.57;3.65;;;29.20;34.40;;;;;;5115472;28;20062;-71
2022/08/12 10:34:16;;;;;;;4.55;3.42;;;29.20;32.40;;;;;;5115109;28;20019;-72
2022/08/12 10:36:43;;;;;;;5.60;3.25;;;29.20;33.50;;;;;;5115270;28;20012;-72
2022/08/12 10:39:12;;;;;;;4.25;3.22;;;29.10;32.10;;;;;;5115045;28;20042;-72
2022/08/12 10:44:23;;;;;;;8.05;4.15;;;29.30;33.70;;;;;;5115070;28;20039;-71
2022/08/12 10:46:51;;;;;;;6.40;3.20;;;29.40;34.00;;;;;;5114939;28;20020;-71
2022/08/12 10:49:18;;;;;;;6.45;3.17;;;29.50;32.90;;;;;;5114928;28;20040;-72
2022/08/12 10:51:44;;;;;;;5.35;2.90;;;29.60;33.10;;;;;;5114816;28;20031;-72
2022/08/12 10:54:12;;;;;;;5.93;3.00;;;29.70;31.90;;;;;;5114762;28;20028;-72
2022/08/12 10:56:39;;;;;;;5.47;3.13;;;29.80;31.40;;;;;;5114749;28;20045;-72
2022/08/12 10:59:06;;;;;;;7.43;3.08;;;29.90;31.00;;;;;;5114664;28;20044;-72
2022/08/12 11:01:32;;;;;;;4.72;3.33;;;29.90;29.70;;;;;;5114636;28;20024;-72
2022/08/12 11:04:01;;;;;;;5.03;3.33;;;29.90;30.80;;;;;;5114510;28;20024;-72
2022/08/12 11:06:27;;;;;;;4.82;2.90;;;29.90;30.80;;;;;;5114512;28;20047;-72
2022/08/12 11:08:55;;;;;;;6.28;3.20;;;30.00;29.40;;;;;;5114489;28;20028;-72
2022/08/12 11:11:21;;;;;;;5.95;3.60;;;30.00;29.80;;;;;;5114458;28;20043;-72
2022/08/12 11:13:47;;;;;;;4.32;3.20;;;30.10;31.00;;;;;;5114404;28;20046;-72
2022/08/12 11:16:15;;;;;;;4.68;3.15;;;30.10;30.20;;;;;;5114494;28;20028;-72
2022/08/12 11:18:40;;;;;;;6.50;3.20;;;30.20;30.00;;;;;;5114353;28;20034;-72
2022/08/12 11:21:06;;;;;;;4.00;3.05;;;30.20;30.00;;;;;;5114255;28;20032;-72
2022/08/12 11:23:32;;;;;;;5.22;3.10;;;30.30;30.50;;;;;;5112962;28;20027;-72
2022/08/12 11:25:57;;;;;;;6.72;4.10;;;30.20;29.40;;;;;;5114156;28;20031;-72
2022/08/12 11:28:23;;;;;;;4.05;3.03;;;30.20;30.20;;;;;;5114048;28;20387;-72
2022/08/12 11:30:49;;;;;;;5.88;3.55;;;30.30;30.10;;;;;;5114051;28;20031;-72
2022/08/12 11:33:14;;;;;;;3.95;3.03;;;30.50;30.10;;;;;;5114038;28;20027;-72
2022/08/12 11:35:41;;;;;;;4.78;3.22;;;30.50;29.10;;;;;;5114033;28;20059;-71
2022/08/12 11:38:07;;;;;;;7.57;3.25;;;30.50;30.00;;;;;;5113985;28;20042;-72
2022/08/12 11:40:33;;;;;;;13.10;3.42;;;30.50;29.20;;;;;;5113186;28;20020;-72
2022/08/12 11:42:59;;;;;;;4.47;3.30;;;30.50;29.60;;;;;;5113982;28;20040;-72
2022/08/12 11:45:29;;;;;;;4.55;3.53;;;30.50;29.50;;;;;;5113882;28;20075;-72
2022/08/12 11:47:58;;;;;;;4.28;3.47;;;30.70;29.80;;;;;;5113836;28;20051;-72
2022/08/12 11:50:23;;;;;;;6.85;3.30;;;30.80;29.60;;;;;;5113774;28;20054;-72
2022/08/12 11:52:50;;;;;;;5.68;3.47;;;30.90;29.20;;;;;;5113779;28;20087;-72
2022/08/12 11:55:17;;;;;;;4.03;3.42;;;30.90;28.70;;;;;;5113721;28;20016;-72
2022/08/12 11:58:01;;;;;;;5.20;3.40;;;30.90;28.70;;;;;;5113832;28;20028;-72
2022/08/12 12:00:27;;;;;;;4.07;3.00;;;31.00;28.80;;;;;;5113702;28;20031;-72
2022/08/12 12:02:53;;;;;;;6.30;3.25;;;31.00;28.80;;;;;;5113537;28;20024;-72
2022/08/12 12:05:19;;;;;;;11.68;3.90;;;31.00;28.10;;;;;;5113434;28;20051;-72
2022/08/12 12:07:46;;;;;;;4.88;3.38;;;31.10;27.60;;;;;;5113574;28;20012;-72
2022/08/12 12:10:14;;;;;;;9.25;3.38;;;31.00;28.20;;;;;;5113662;28;20031;-72
2022/08/12 12:12:41;;;;;;;5.32;3.28;;;31.10;28.80;;;;;;5113531;28;20042;-72
2022/08/12 12:15:08;;;;;;;5.57;3.08;;;31.20;29.30;;;;;;5113529;28;20028;-72
2022/08/12 12:17:38;;;;;;;4.95;3.28;;;31.30;28.60;;;;;;5113450;28;20024;-72
2022/08/12 12:20:09;;;;;;;5.00;3.30;;;31.30;28.50;;;;;;5113500;28;20042;-72
2022/08/12 12:22:40;;;;;;;6.47;3.20;;;31.30;28.60;;;;;;5113642;28;20020;-72
2022/08/12 12:25:07;;;;;;;3.83;3.40;;;31.40;28.50;;;;;;5113487;28;20050;-72
2022/08/12 12:27:49;;;;;;;4.25;3.42;;;31.40;28.10;;;;;;5112373;28;20028;-72
2022/08/12 12:30:15;;;;;;;5.35;3.20;;;31.50;28.00;;;;;;5113360;28;20027;-72
2022/08/12 12:32:41;;;;;;;5.85;3.13;;;31.50;27.30;;;;;;5112313;28;20020;-72
2022/08/12 12:35:07;;;;;;;4.35;3.00;;;31.50;28.50;;;;;;5113429;28;20079;-72
2022/08/12 12:37:33;;;;;;;4.43;3.08;;;31.70;29.10;;;;;;5113412;28;20047;-72
2022/08/12 12:39:59;;;;;;;4.47;3.13;;;31.90;29.30;;;;;;5113268;28;20032;-72
2022/08/12 12:42:25;;;;;;;4.78;2.88;;;32.00;29.00;;;;;;5113262;28;20032;-72
2022/08/12 12:44:50;;;;;;;4.70;2.80;;;32.00;28.00;;;;;;5112124;28;20033;-72
2022/08/12 12:47:16;;;;;;;4.57;2.78;;;32.10;26.70;;;;;;5112284;28;20036;-72
2022/08/12 12:49:42;;;;;;;6.57;2.55;;;32.00;27.40;;;;;;5113167;28;20031;-72
2022/08/12 12:52:07;;;;;;;4.05;2.67;;;32.10;27.10;;;;;;5114904;28;20024;-72
2022/08/12 12:54:33;;;;;;;4.45;3.25;;;32.20;26.40;;;;;;5117119;28;20043;-72
2022/08/12 12:57:00;;;;;;;2.88;2.47;;;32.20;26.20;;;;;;5117048;28;20024;-72
2022/08/12 12:59:27;;;;;;;5.80;2.80;;;32.20;27.30;;;;;;5116095;28;20032;-72
2022/08/12 13:01:53;;;;;;;3.67;2.78;;;32.30;27.40;;;;;;5117092;28;20025;-72
2022/08/12 13:04:19;;;;;;;4.10;2.70;;;32.50;27.30;;;;;;5116687;28;20047;-72
2022/08/12 13:06:50;;;;;;;3.35;2.90;;;32.60;27.60;;;;;;5116901;28;20029;-72
2022/08/12 13:09:17;;;;;;;5.50;2.45;;;32.70;27.20;;;;;;5116878;28;20040;-72
2022/08/12 13:11:42;;;;;;;4.35;2.60;;;32.70;27.20;;;;;;5116769;28;20020;-72
2022/08/12 13:14:12;;;;;;;5.05;2.35;;;32.80;27.40;;;;;;5116725;28;20034;-72
2022/08/12 13:16:42;;;;;;;5.72;2.70;;;32.90;26.40;;;;;;5116658;28;20016;-72
2022/08/12 13:19:08;;;;;;;3.08;2.50;;;32.80;26.00;;;;;;5116778;28;20042;-72
2022/08/12 13:21:34;;;;;;;3.70;2.50;;;32.80;26.70;;;;;;5116571;28;20494;-72
2022/08/12 13:24:01;;;;;;;2.83;2.53;;;32.80;26.00;;;;;;5116500;28;20028;-72
2022/08/12 13:26:33;;;;;;;5.15;2.80;;;32.90;25.60;;;;;;5116475;28;20096;-72
2022/08/12 13:28:59;;;;;;;4.43;2.80;;;32.90;25.60;;;;;;5116465;28;20019;-72
2022/08/12 13:31:24;;;;;;;3.58;2.70;;;33.00;26.40;;;;;;5116394;28;20020;-72
2022/08/12 13:33:50;;;;;;;4.43;2.53;;;33.00;26.00;;;;;;5116349;28;20032;-72
2022/08/12 13:36:19;;;;;;;4.00;2.65;;;32.90;24.80;;;;;;5116463;28;20034;-72
2022/08/12 13:38:49;;;;;;;3.65;2.42;;;32.80;25.40;;;;;;5116262;28;20094;-72
2022/08/12 13:44:03;;;;;;;2.70;2.50;;;32.70;24.70;;;;;;5116310;28;20030;-72
2022/08/12 13:46:28;;;;;;;3.42;2.30;;;32.70;25.70;;;;;;5116120;28;20024;-72
2022/08/12 13:48:55;;;;;;;4.47;2.80;;;32.80;24.80;;;;;;5115193;28;20026;-72
2022/08/12 13:51:22;;;;;;;6.57;2.70;;;32.80;26.30;;;;;;5098326;28;20016;-72
2022/08/12 13:53:48;;;;;;;6.28;2.63;;;32.90;25.90;;;;;;5098056;28;20024;-72
2022/08/12 13:56:13;;;;;;;4.75;2.60;;;32.70;24.80;;;;;;5115945;28;20020;-72
2022/08/12 13:58:47;;;;;;;5.60;2.90;;;32.70;24.60;;;;;;5097976;28;20049;-72
2022/08/12 14:01:14;;;;;;;3.78;2.70;;;32.70;25.20;;;;;;5115864;28;20024;-72
2022/08/12 14:03:41;;;;;;;6.18;2.65;;;32.80;25.50;;;;;;5114031;28;20031;-72
2022/08/12 14:06:07;;;;;;;4.82;2.78;;;32.90;26.10;;;;;;5115569;28;20058;-72
2022/08/12 14:08:33;;;;;;;3.28;2.50;;;33.00;26.90;;;;;;5115736;28;20056;-72
2022/08/12 14:10:59;;;;;;;5.68;2.80;;;33.10;25.90;;;;;;5115646;28;20024;-72
2022/08/12 14:13:28;;;;;;;5.47;2.60;;;33.20;25.90;;;;;;5115640;28;20083;-72
2022/08/12 14:15:59;;;;;;;4.18;2.90;;;33.20;26.10;;;;;;5115558;28;20027;-72
2022/08/12 14:18:27;;;;;;;;;;;33.20;25.10;;;;;;5114951;28;20042;-72
2022/08/12 14:21:02;;;;;;;6.57;2.47;;;33.20;25.30;;;;;;5115366;28;19915;-72
2022/08/12 14:23:34;;;;;;;5.20;2.83;;;33.10;25.40;;;;;;5115430;28;20446;-72
2022/08/12 14:26:04;;;;;;;6.25;2.80;;;33.10;25.40;;;;;;5115383;28;20094;-72
2022/08/12 14:28:31;;;;;;;3.10;2.80;;;33.00;25.50;;;;;;5114292;28;20028;-72
2022/08/12 14:31:02;;;;;;;3.15;2.55;;;33.00;24.90;;;;;;5114228;28;20020;-72
2022/08/12 14:33:33;;;;;;;4.40;2.53;;;33.00;25.10;;;;;;5115231;28;20024;-72
2022/08/12 14:36:00;;;;;;;3.35;2.40;;;33.10;25.40;;;;;;5114286;28;20016;-72
2022/08/12 14:38:29;;;;;;;3.63;2.50;;;33.00;25.00;;;;;;5114168;28;20028;-72
2022/08/12 14:40:59;;;;;;;5.45;2.67;;;33.00;25.30;;;;;;5115066;28;20024;-72
2022/08/12 14:43:28;;;;;;;4.22;2.40;;;33.10;25.70;;;;;;5115000;28;20032;-72
2022/08/12 14:45:55;;;;;;;3.30;2.33;;;33.20;26.10;;;;;;5114004;28;20028;-72